sensor_id;sensor_type;location;lat;lon;timestamp;P1;durP1;ratioP1;P2;durP2;ratioP2
68438;SDS011;55421;51.600;5.718;2023-11-19T00:00:58;9.90;;;7.20;;
68438;SDS011;55421;51.600;5.718;2023-11-19T00:03:44;9.40;;;7.50;;
68438;SDS011;55421;51.600;5.718;2023-11-19T00:06:11;7.10;;;6.00;;
68438;SDS011;55421;51.600;5.718;2023-11-19T00:08:37;10.50;;;7.50;;
68438;SDS011;55421;51.600;5.718;2023-11-19T00:11:04;9.80;;;7.10;;
68438;SDS011;55421;51.600;5.718;2023-11-19T00:13:31;10.20;;;7.10;;
68438;SDS011;55421;51.600;5.718;2023-11-19T00:15:57;9.90;;;7.90;;
68438;SDS011;55421;51.600;5.718;2023-11-19T00:18:23;10.80;;;6.50;;
68438;SDS011;55421;51.600;5.718;2023-11-19T00:20:50;8.00;;;6.10;;
68438;SDS011;55421;51.600;5.718;2023-11-19T00:23:16;10.40;;;7.70;;
68438;SDS011;55421;51.600;5.718;2023-11-19T00:25:43;9.50;;;7.00;;
68438;SDS011;55421;51.600;5.718;2023-11-19T00:28:10;11.00;;;7.10;;
68438;SDS011;55421;51.600;5.718;2023-11-19T00:30:37;9.30;;;6.40;;
68438;SDS011;55421;51.600;5.718;2023-11-19T00:33:03;12.10;;;7.20;;
68438;SDS011;55421;51.600;5.718;2023-11-19T00:35:29;7.80;;;5.80;;
68438;SDS011;55421;51.600;5.718;2023-11-19T00:37:58;9.70;;;6.10;;
68438;SDS011;55421;51.600;5.718;2023-11-19T00:40:24;9.50;;;6.00;;
68438;SDS011;55421;51.600;5.718;2023-11-19T00:42:52;12.30;;;6.60;;
68438;SDS011;55421;51.600;5.718;2023-11-19T00:45:19;10.10;;;6.20;;
68438;SDS011;55421;51.600;5.718;2023-11-19T00:47:45;12.80;;;6.10;;
68438;SDS011;55421;51.600;5.718;2023-11-19T00:50:12;9.50;;;6.50;;
68438;SDS011;55421;51.600;5.718;2023-11-19T00:52:39;11.90;;;6.70;;
68438;SDS011;55421;51.600;5.718;2023-11-19T00:55:06;13.20;;;7.30;;
68438;SDS011;55421;51.600;5.718;2023-11-19T00:57:33;11.10;;;6.80;;
68438;SDS011;55421;51.600;5.718;2023-11-19T00:59:59;10.10;;;6.20;;
68438;SDS011;55421;51.600;5.718;2023-11-19T01:02:26;11.90;;;6.10;;
68438;SDS011;55421;51.600;5.718;2023-11-19T01:04:52;12.30;;;5.60;;
68438;SDS011;55421;51.600;5.718;2023-11-19T01:07:18;12.90;;;5.00;;
68438;SDS011;55421;51.600;5.718;2023-11-19T01:09:45;8.20;;;4.80;;
68438;SDS011;55421;51.600;5.718;2023-11-19T01:12:11;16.40;;;6.20;;
68438;SDS011;55421;51.600;5.718;2023-11-19T01:14:38;11.50;;;6.00;;
68438;SDS011;55421;51.600;5.718;2023-11-19T01:17:05;12.30;;;4.80;;
68438;SDS011;55421;51.600;5.718;2023-11-19T01:19:31;12.50;;;5.20;;
68438;SDS011;55421;51.600;5.718;2023-11-19T01:21:58;10.70;;;5.10;;
68438;SDS011;55421;51.600;5.718;2023-11-19T01:24:24;9.40;;;4.80;;
68438;SDS011;55421;51.600;5.718;2023-11-19T01:26:54;6.50;;;4.20;;
68438;SDS011;55421;51.600;5.718;2023-11-19T01:29:21;13.90;;;4.30;;
68438;SDS011;55421;51.600;5.718;2023-11-19T01:31:47;7.20;;;4.30;;
68438;SDS011;55421;51.600;5.718;2023-11-19T01:34:14;11.30;;;4.80;;
68438;SDS011;55421;51.600;5.718;2023-11-19T01:36:40;11.60;;;4.20;;
68438;SDS011;55421;51.600;5.718;2023-11-19T01:39:06;13.90;;;4.10;;
68438;SDS011;55421;51.600;5.718;2023-11-19T01:41:36;9.70;;;4.60;;
68438;SDS011;55421;51.600;5.718;2023-11-19T01:44:08;13.80;;;4.40;;
68438;SDS011;55421;51.600;5.718;2023-11-19T01:46:35;11.30;;;4.50;;
68438;SDS011;55421;51.600;5.718;2023-11-19T01:49:02;11.20;;;4.30;;
68438;SDS011;55421;51.600;5.718;2023-11-19T01:51:31;10.50;;;4.40;;
68438;SDS011;55421;51.600;5.718;2023-11-19T01:53:58;10.90;;;4.30;;
68438;SDS011;55421;51.600;5.718;2023-11-19T01:56:26;9.90;;;4.30;;
68438;SDS011;55421;51.600;5.718;2023-11-19T01:58:54;11.60;;;4.40;;
68438;SDS011;55421;51.600;5.718;2023-11-19T02:01:22;11.90;;;3.80;;
68438;SDS011;55421;51.600;5.718;2023-11-19T02:03:48;10.30;;;3.70;;
68438;SDS011;55421;51.600;5.718;2023-11-19T02:06:15;14.50;;;4.70;;
68438;SDS011;55421;51.600;5.718;2023-11-19T02:08:42;9.30;;;4.30;;
68438;SDS011;55421;51.600;5.718;2023-11-19T02:11:10;14.00;;;4.00;;
68438;SDS011;55421;51.600;5.718;2023-11-19T02:13:38;8.80;;;3.80;;
68438;SDS011;55421;51.600;5.718;2023-11-19T02:16:07;13.20;;;4.00;;
68438;SDS011;55421;51.600;5.718;2023-11-19T02:18:37;13.70;;;5.20;;
68438;SDS011;55421;51.600;5.718;2023-11-19T02:21:03;12.90;;;3.70;;
68438;SDS011;55421;51.600;5.718;2023-11-19T02:23:31;15.80;;;4.30;;
68438;SDS011;55421;51.600;5.718;2023-11-19T02:26:02;13.30;;;4.50;;
68438;SDS011;55421;51.600;5.718;2023-11-19T02:28:36;16.00;;;5.20;;
68438;SDS011;55421;51.600;5.718;2023-11-19T02:31:03;13.60;;;3.90;;
68438;SDS011;55421;51.600;5.718;2023-11-19T02:33:37;14.60;;;3.90;;
68438;SDS011;55421;51.600;5.718;2023-11-19T02:36:05;15.70;;;4.30;;
68438;SDS011;55421;51.600;5.718;2023-11-19T02:38:36;20.50;;;4.60;;
68438;SDS011;55421;51.600;5.718;2023-11-19T02:41:03;19.30;;;4.60;;
68438;SDS011;55421;51.600;5.718;2023-11-19T02:43:37;17.30;;;4.40;;
68438;SDS011;55421;51.600;5.718;2023-11-19T02:46:05;13.20;;;4.40;;
68438;SDS011;55421;51.600;5.718;2023-11-19T02:48:35;18.90;;;5.20;;
68438;SDS011;55421;51.600;5.718;2023-11-19T02:51:05;14.90;;;4.70;;
68438;SDS011;55421;51.600;5.718;2023-11-19T02:53:36;12.50;;;4.20;;
68438;SDS011;55421;51.600;5.718;2023-11-19T02:56:06;16.10;;;4.60;;
68438;SDS011;55421;51.600;5.718;2023-11-19T03:01:13;15.40;;;4.20;;
68438;SDS011;55421;51.600;5.718;2023-11-19T03:03:50;15.70;;;4.10;;
68438;SDS011;55421;51.600;5.718;2023-11-19T03:06:27;16.20;;;4.30;;
68438;SDS011;55421;51.600;5.718;2023-11-19T03:08:55;16.60;;;3.90;;
68438;SDS011;55421;51.600;5.718;2023-11-19T03:11:22;21.00;;;4.20;;
68438;SDS011;55421;51.600;5.718;2023-11-19T03:13:48;17.80;;;3.80;;
68438;SDS011;55421;51.600;5.718;2023-11-19T03:16:15;18.30;;;4.30;;
68438;SDS011;55421;51.600;5.718;2023-11-19T03:18:43;20.30;;;5.00;;
68438;SDS011;55421;51.600;5.718;2023-11-19T03:21:09;14.30;;;3.80;;
68438;SDS011;55421;51.600;5.718;2023-11-19T03:23:36;20.00;;;4.50;;
68438;SDS011;55421;51.600;5.718;2023-11-19T03:26:03;16.40;;;3.90;;
68438;SDS011;55421;51.600;5.718;2023-11-19T03:28:31;19.30;;;3.70;;
68438;SDS011;55421;51.600;5.718;2023-11-19T03:30:58;24.00;;;4.30;;
68438;SDS011;55421;51.600;5.718;2023-11-19T03:33:25;15.80;;;3.70;;
68438;SDS011;55421;51.600;5.718;2023-11-19T03:35:54;20.00;;;4.10;;
68438;SDS011;55421;51.600;5.718;2023-11-19T03:38:23;16.60;;;3.60;;
68438;SDS011;55421;51.600;5.718;2023-11-19T03:40:51;21.70;;;4.30;;
68438;SDS011;55421;51.600;5.718;2023-11-19T03:43:17;21.00;;;4.40;;
68438;SDS011;55421;51.600;5.718;2023-11-19T03:45:45;22.90;;;3.90;;
68438;SDS011;55421;51.600;5.718;2023-11-19T03:48:13;19.90;;;3.90;;
68438;SDS011;55421;51.600;5.718;2023-11-19T03:50:42;20.20;;;3.90;;
68438;SDS011;55421;51.600;5.718;2023-11-19T03:53:09;22.00;;;3.70;;
68438;SDS011;55421;51.600;5.718;2023-11-19T03:55:35;20.90;;;4.20;;
68438;SDS011;55421;51.600;5.718;2023-11-19T03:58:02;21.90;;;4.00;;
68438;SDS011;55421;51.600;5.718;2023-11-19T04:00:28;25.50;;;4.10;;
68438;SDS011;55421;51.600;5.718;2023-11-19T04:02:55;20.80;;;3.40;;
68438;SDS011;55421;51.600;5.718;2023-11-19T04:05:22;29.10;;;4.60;;
68438;SDS011;55421;51.600;5.718;2023-11-19T04:07:48;23.70;;;3.90;;
68438;SDS011;55421;51.600;5.718;2023-11-19T04:10:15;19.70;;;3.90;;
68438;SDS011;55421;51.600;5.718;2023-11-19T04:12:43;24.10;;;3.60;;
68438;SDS011;55421;51.600;5.718;2023-11-19T04:15:11;25.50;;;4.20;;
68438;SDS011;55421;51.600;5.718;2023-11-19T04:17:37;27.10;;;4.60;;
68438;SDS011;55421;51.600;5.718;2023-11-19T04:20:05;27.50;;;4.80;;
68438;SDS011;55421;51.600;5.718;2023-11-19T04:22:32;30.00;;;4.00;;
68438;SDS011;55421;51.600;5.718;2023-11-19T04:24:58;26.40;;;4.00;;
68438;SDS011;55421;51.600;5.718;2023-11-19T04:27:25;37.60;;;4.70;;
68438;SDS011;55421;51.600;5.718;2023-11-19T04:29:51;27.90;;;4.00;;
68438;SDS011;55421;51.600;5.718;2023-11-19T04:32:18;25.00;;;4.20;;
68438;SDS011;55421;51.600;5.718;2023-11-19T04:34:45;26.50;;;3.70;;
68438;SDS011;55421;51.600;5.718;2023-11-19T04:37:11;24.10;;;3.80;;
68438;SDS011;55421;51.600;5.718;2023-11-19T04:39:38;21.10;;;3.80;;
68438;SDS011;55421;51.600;5.718;2023-11-19T04:42:05;29.00;;;4.10;;
68438;SDS011;55421;51.600;5.718;2023-11-19T04:44:32;26.20;;;4.10;;
68438;SDS011;55421;51.600;5.718;2023-11-19T04:46:59;28.80;;;4.50;;
68438;SDS011;55421;51.600;5.718;2023-11-19T04:49:25;25.80;;;4.40;;
68438;SDS011;55421;51.600;5.718;2023-11-19T04:51:53;23.70;;;4.20;;
68438;SDS011;55421;51.600;5.718;2023-11-19T04:54:19;30.00;;;4.80;;
68438;SDS011;55421;51.600;5.718;2023-11-19T04:56:46;29.80;;;4.90;;
68438;SDS011;55421;51.600;5.718;2023-11-19T04:59:13;28.90;;;4.80;;
68438;SDS011;55421;51.600;5.718;2023-11-19T05:01:40;30.10;;;5.20;;
68438;SDS011;55421;51.600;5.718;2023-11-19T05:04:07;25.60;;;3.90;;
68438;SDS011;55421;51.600;5.718;2023-11-19T05:06:34;18.10;;;4.20;;
68438;SDS011;55421;51.600;5.718;2023-11-19T05:09:01;23.90;;;4.80;;
68438;SDS011;55421;51.600;5.718;2023-11-19T05:11:31;29.50;;;5.90;;
68438;SDS011;55421;51.600;5.718;2023-11-19T05:13:58;29.90;;;4.50;;
68438;SDS011;55421;51.600;5.718;2023-11-19T05:16:24;25.00;;;5.00;;
68438;SDS011;55421;51.600;5.718;2023-11-19T05:18:51;27.10;;;5.00;;
68438;SDS011;55421;51.600;5.718;2023-11-19T05:21:17;16.80;;;3.70;;
68438;SDS011;55421;51.600;5.718;2023-11-19T05:23:44;21.70;;;4.80;;
68438;SDS011;55421;51.600;5.718;2023-11-19T05:26:20;19.80;;;4.00;;
68438;SDS011;55421;51.600;5.718;2023-11-19T05:28:48;26.00;;;4.60;;
68438;SDS011;55421;51.600;5.718;2023-11-19T05:31:16;19.50;;;3.60;;
68438;SDS011;55421;51.600;5.718;2023-11-19T05:33:43;24.60;;;4.00;;
68438;SDS011;55421;51.600;5.718;2023-11-19T05:36:11;25.70;;;3.80;;
68438;SDS011;55421;51.600;5.718;2023-11-19T05:38:39;23.20;;;3.90;;
68438;SDS011;55421;51.600;5.718;2023-11-19T05:41:06;24.50;;;4.20;;
68438;SDS011;55421;51.600;5.718;2023-11-19T05:43:32;25.70;;;4.20;;
68438;SDS011;55421;51.600;5.718;2023-11-19T05:45:59;29.30;;;4.30;;
68438;SDS011;55421;51.600;5.718;2023-11-19T05:48:27;19.60;;;3.50;;
68438;SDS011;55421;51.600;5.718;2023-11-19T05:50:54;25.20;;;5.40;;
68438;SDS011;55421;51.600;5.718;2023-11-19T05:53:21;23.60;;;4.80;;
68438;SDS011;55421;51.600;5.718;2023-11-19T05:55:47;25.20;;;4.90;;
68438;SDS011;55421;51.600;5.718;2023-11-19T05:58:26;32.90;;;5.90;;
68438;SDS011;55421;51.600;5.718;2023-11-19T06:00:56;23.20;;;5.00;;
68438;SDS011;55421;51.600;5.718;2023-11-19T06:03:23;28.30;;;5.00;;
68438;SDS011;55421;51.600;5.718;2023-11-19T06:05:50;30.30;;;5.50;;
68438;SDS011;55421;51.600;5.718;2023-11-19T06:08:16;28.40;;;5.30;;
68438;SDS011;55421;51.600;5.718;2023-11-19T06:10:44;24.40;;;4.30;;
68438;SDS011;55421;51.600;5.718;2023-11-19T06:13:13;22.50;;;4.50;;
68438;SDS011;55421;51.600;5.718;2023-11-19T06:15:42;31.10;;;5.70;;
68438;SDS011;55421;51.600;5.718;2023-11-19T06:18:09;41.60;;;6.50;;
68438;SDS011;55421;51.600;5.718;2023-11-19T06:20:37;34.50;;;5.10;;
68438;SDS011;55421;51.600;5.718;2023-11-19T06:23:04;29.50;;;5.60;;
68438;SDS011;55421;51.600;5.718;2023-11-19T06:25:31;25.90;;;4.60;;
68438;SDS011;55421;51.600;5.718;2023-11-19T06:27:57;30.10;;;4.80;;
68438;SDS011;55421;51.600;5.718;2023-11-19T06:30:25;30.20;;;4.50;;
68438;SDS011;55421;51.600;5.718;2023-11-19T06:32:51;34.80;;;4.10;;
68438;SDS011;55421;51.600;5.718;2023-11-19T06:35:18;34.20;;;4.50;;
68438;SDS011;55421;51.600;5.718;2023-11-19T06:37:44;23.20;;;4.30;;
68438;SDS011;55421;51.600;5.718;2023-11-19T06:40:11;30.30;;;4.50;;
68438;SDS011;55421;51.600;5.718;2023-11-19T06:42:38;21.70;;;4.00;;
68438;SDS011;55421;51.600;5.718;2023-11-19T06:45:06;22.30;;;3.80;;
68438;SDS011;55421;51.600;5.718;2023-11-19T06:47:32;24.90;;;3.60;;
68438;SDS011;55421;51.600;5.718;2023-11-19T06:50:01;23.40;;;3.80;;
68438;SDS011;55421;51.600;5.718;2023-11-19T06:52:30;28.10;;;4.40;;
68438;SDS011;55421;51.600;5.718;2023-11-19T06:54:57;27.90;;;3.60;;
68438;SDS011;55421;51.600;5.718;2023-11-19T06:57:23;28.30;;;4.20;;
68438;SDS011;55421;51.600;5.718;2023-11-19T06:59:50;31.40;;;4.70;;
68438;SDS011;55421;51.600;5.718;2023-11-19T07:02:16;29.30;;;4.50;;
68438;SDS011;55421;51.600;5.718;2023-11-19T07:04:43;21.00;;;4.20;;
68438;SDS011;55421;51.600;5.718;2023-11-19T07:07:09;27.10;;;4.00;;
68438;SDS011;55421;51.600;5.718;2023-11-19T07:09:36;36.30;;;4.60;;
68438;SDS011;55421;51.600;5.718;2023-11-19T07:12:03;26.20;;;3.60;;
68438;SDS011;55421;51.600;5.718;2023-11-19T07:14:31;21.20;;;3.60;;
68438;SDS011;55421;51.600;5.718;2023-11-19T07:16:57;20.60;;;3.30;;
68438;SDS011;55421;51.600;5.718;2023-11-19T07:19:24;28.10;;;5.20;;
68438;SDS011;55421;51.600;5.718;2023-11-19T07:21:50;20.30;;;3.40;;
68438;SDS011;55421;51.600;5.718;2023-11-19T07:24:16;13.30;;;2.40;;
68438;SDS011;55421;51.600;5.718;2023-11-19T07:26:44;26.10;;;3.90;;
68438;SDS011;55421;51.600;5.718;2023-11-19T07:29:11;31.60;;;4.20;;
68438;SDS011;55421;51.600;5.718;2023-11-19T07:31:38;19.20;;;3.00;;
68438;SDS011;55421;51.600;5.718;2023-11-19T07:34:04;26.00;;;3.80;;
68438;SDS011;55421;51.600;5.718;2023-11-19T07:36:32;31.00;;;3.90;;
68438;SDS011;55421;51.600;5.718;2023-11-19T07:38:59;24.00;;;3.30;;
68438;SDS011;55421;51.600;5.718;2023-11-19T07:41:25;27.00;;;3.80;;
68438;SDS011;55421;51.600;5.718;2023-11-19T07:43:52;21.60;;;3.70;;
68438;SDS011;55421;51.600;5.718;2023-11-19T07:46:19;26.20;;;4.40;;
68438;SDS011;55421;51.600;5.718;2023-11-19T07:48:46;21.80;;;3.00;;
68438;SDS011;55421;51.600;5.718;2023-11-19T07:51:18;28.40;;;4.30;;
68438;SDS011;55421;51.600;5.718;2023-11-19T07:53:45;22.90;;;4.00;;
68438;SDS011;55421;51.600;5.718;2023-11-19T07:56:11;26.30;;;4.50;;
68438;SDS011;55421;51.600;5.718;2023-11-19T07:58:38;28.40;;;4.20;;
68438;SDS011;55421;51.600;5.718;2023-11-19T08:01:05;20.20;;;3.80;;
68438;SDS011;55421;51.600;5.718;2023-11-19T08:03:31;27.70;;;3.70;;
68438;SDS011;55421;51.600;5.718;2023-11-19T08:06:00;34.90;;;5.20;;
68438;SDS011;55421;51.600;5.718;2023-11-19T08:08:28;29.20;;;4.20;;
68438;SDS011;55421;51.600;5.718;2023-11-19T08:11:00;29.00;;;4.90;;
68438;SDS011;55421;51.600;5.718;2023-11-19T08:13:26;19.00;;;3.70;;
68438;SDS011;55421;51.600;5.718;2023-11-19T08:15:53;31.00;;;5.00;;
68438;SDS011;55421;51.600;5.718;2023-11-19T08:18:19;27.10;;;4.70;;
68438;SDS011;55421;51.600;5.718;2023-11-19T08:20:46;24.30;;;4.40;;
68438;SDS011;55421;51.600;5.718;2023-11-19T08:23:16;29.10;;;4.80;;
68438;SDS011;55421;51.600;5.718;2023-11-19T08:25:42;26.10;;;3.80;;
68438;SDS011;55421;51.600;5.718;2023-11-19T08:28:09;31.90;;;4.00;;
68438;SDS011;55421;51.600;5.718;2023-11-19T08:30:36;26.10;;;4.40;;
68438;SDS011;55421;51.600;5.718;2023-11-19T08:33:03;26.90;;;3.50;;
68438;SDS011;55421;51.600;5.718;2023-11-19T08:35:29;26.60;;;4.00;;
68438;SDS011;55421;51.600;5.718;2023-11-19T08:37:56;23.30;;;3.80;;
68438;SDS011;55421;51.600;5.718;2023-11-19T08:40:23;18.60;;;3.30;;
68438;SDS011;55421;51.600;5.718;2023-11-19T08:42:49;27.90;;;4.10;;
68438;SDS011;55421;51.600;5.718;2023-11-19T08:45:16;22.10;;;3.80;;
68438;SDS011;55421;51.600;5.718;2023-11-19T08:47:43;24.80;;;3.00;;
68438;SDS011;55421;51.600;5.718;2023-11-19T08:50:11;32.10;;;4.10;;
68438;SDS011;55421;51.600;5.718;2023-11-19T08:52:38;27.30;;;3.70;;
68438;SDS011;55421;51.600;5.718;2023-11-19T08:55:05;22.50;;;3.10;;
68438;SDS011;55421;51.600;5.718;2023-11-19T08:57:32;22.40;;;3.70;;
68438;SDS011;55421;51.600;5.718;2023-11-19T09:00:01;28.60;;;3.90;;
68438;SDS011;55421;51.600;5.718;2023-11-19T09:02:36;29.40;;;4.40;;
68438;SDS011;55421;51.600;5.718;2023-11-19T09:05:04;21.70;;;4.00;;
68438;SDS011;55421;51.600;5.718;2023-11-19T09:07:33;15.90;;;2.90;;
68438;SDS011;55421;51.600;5.718;2023-11-19T09:10:00;20.90;;;3.20;;
68438;SDS011;55421;51.600;5.718;2023-11-19T09:12:26;22.50;;;3.70;;
68438;SDS011;55421;51.600;5.718;2023-11-19T09:14:53;22.90;;;4.00;;
68438;SDS011;55421;51.600;5.718;2023-11-19T09:17:20;17.70;;;2.90;;
68438;SDS011;55421;51.600;5.718;2023-11-19T09:19:46;26.00;;;3.80;;
68438;SDS011;55421;51.600;5.718;2023-11-19T09:22:13;23.60;;;3.20;;
68438;SDS011;55421;51.600;5.718;2023-11-19T09:24:40;23.40;;;3.60;;
68438;SDS011;55421;51.600;5.718;2023-11-19T09:27:07;24.80;;;3.80;;
68438;SDS011;55421;51.600;5.718;2023-11-19T09:29:34;25.00;;;3.30;;
68438;SDS011;55421;51.600;5.718;2023-11-19T09:32:00;19.80;;;3.10;;
68438;SDS011;55421;51.600;5.718;2023-11-19T09:34:27;24.80;;;4.10;;
68438;SDS011;55421;51.600;5.718;2023-11-19T09:36:54;22.00;;;4.20;;
68438;SDS011;55421;51.600;5.718;2023-11-19T09:39:20;28.00;;;4.80;;
68438;SDS011;55421;51.600;5.718;2023-11-19T09:41:47;26.50;;;4.60;;
68438;SDS011;55421;51.600;5.718;2023-11-19T09:44:14;30.70;;;5.60;;
68438;SDS011;55421;51.600;5.718;2023-11-19T09:46:44;17.50;;;3.50;;
68438;SDS011;55421;51.600;5.718;2023-11-19T09:49:11;26.30;;;4.60;;
68438;SDS011;55421;51.600;5.718;2023-11-19T09:51:39;30.80;;;4.40;;
68438;SDS011;55421;51.600;5.718;2023-11-19T09:54:06;21.30;;;4.00;;
68438;SDS011;55421;51.600;5.718;2023-11-19T09:56:35;20.90;;;4.00;;
68438;SDS011;55421;51.600;5.718;2023-11-19T09:59:03;18.70;;;3.60;;
68438;SDS011;55421;51.600;5.718;2023-11-19T10:01:31;19.20;;;3.40;;
68438;SDS011;55421;51.600;5.718;2023-11-19T10:03:58;27.70;;;4.10;;
68438;SDS011;55421;51.600;5.718;2023-11-19T10:06:25;20.90;;;3.20;;
68438;SDS011;55421;51.600;5.718;2023-11-19T10:08:53;18.80;;;3.50;;
68438;SDS011;55421;51.600;5.718;2023-11-19T10:11:19;15.20;;;2.90;;
68438;SDS011;55421;51.600;5.718;2023-11-19T10:13:46;26.70;;;3.40;;
68438;SDS011;55421;51.600;5.718;2023-11-19T10:16:15;18.90;;;3.70;;
68438;SDS011;55421;51.600;5.718;2023-11-19T10:18:48;24.70;;;4.70;;
68438;SDS011;55421;51.600;5.718;2023-11-19T10:21:19;18.70;;;3.40;;
68438;SDS011;55421;51.600;5.718;2023-11-19T10:23:56;17.10;;;3.40;;
68438;SDS011;55421;51.600;5.718;2023-11-19T10:26:26;21.60;;;3.50;;
68438;SDS011;55421;51.600;5.718;2023-11-19T10:28:55;23.40;;;4.30;;
68438;SDS011;55421;51.600;5.718;2023-11-19T10:31:22;19.70;;;3.80;;
68438;SDS011;55421;51.600;5.718;2023-11-19T10:33:51;15.50;;;3.10;;
68438;SDS011;55421;51.600;5.718;2023-11-19T10:36:19;21.10;;;3.00;;
68438;SDS011;55421;51.600;5.718;2023-11-19T10:38:56;24.50;;;4.20;;
68438;SDS011;55421;51.600;5.718;2023-11-19T10:41:30;17.20;;;3.00;;
68438;SDS011;55421;51.600;5.718;2023-11-19T10:44:00;14.80;;;3.10;;
68438;SDS011;55421;51.600;5.718;2023-11-19T10:49:09;14.80;;;3.10;;
68438;SDS011;55421;51.600;5.718;2023-11-19T10:51:40;17.80;;;4.00;;
68438;SDS011;55421;51.600;5.718;2023-11-19T10:54:15;21.10;;;4.30;;
68438;SDS011;55421;51.600;5.718;2023-11-19T10:56:48;17.40;;;3.30;;
68438;SDS011;55421;51.600;5.718;2023-11-19T10:59:21;21.70;;;3.40;;
68438;SDS011;55421;51.600;5.718;2023-11-19T11:01:53;20.70;;;3.40;;
68438;SDS011;55421;51.600;5.718;2023-11-19T11:04:25;19.70;;;3.20;;
68438;SDS011;55421;51.600;5.718;2023-11-19T11:06:54;14.40;;;3.10;;
68438;SDS011;55421;51.600;5.718;2023-11-19T11:09:27;18.40;;;3.10;;
68438;SDS011;55421;51.600;5.718;2023-11-19T11:11:54;21.70;;;4.20;;
68438;SDS011;55421;51.600;5.718;2023-11-19T11:14:24;17.00;;;4.20;;
68438;SDS011;55421;51.600;5.718;2023-11-19T11:16:53;18.30;;;3.60;;
68438;SDS011;55421;51.600;5.718;2023-11-19T11:19:19;16.80;;;3.50;;
68438;SDS011;55421;51.600;5.718;2023-11-19T11:21:52;21.60;;;3.70;;
68438;SDS011;55421;51.600;5.718;2023-11-19T11:33:19;22.40;;;3.40;;
68438;SDS011;55421;51.600;5.718;2023-11-19T11:36:20;15.50;;;3.40;;
68438;SDS011;55421;51.600;5.718;2023-11-19T11:38:49;17.10;;;3.00;;
68438;SDS011;55421;51.600;5.718;2023-11-19T11:41:24;12.80;;;2.30;;
68438;SDS011;55421;51.600;5.718;2023-11-19T11:43:55;17.50;;;3.40;;
68438;SDS011;55421;51.600;5.718;2023-11-19T11:49:02;17.10;;;3.10;;
68438;SDS011;55421;51.600;5.718;2023-11-19T11:54:26;15.40;;;2.60;;
68438;SDS011;55421;51.600;5.718;2023-11-19T11:57:02;14.80;;;3.20;;
68438;SDS011;55421;51.600;5.718;2023-11-19T12:02:09;16.20;;;2.70;;
68438;SDS011;55421;51.600;5.718;2023-11-19T12:04:36;12.70;;;2.80;;
68438;SDS011;55421;51.600;5.718;2023-11-19T12:07:07;19.90;;;2.80;;
68438;SDS011;55421;51.600;5.718;2023-11-19T12:09:42;9.90;;;2.60;;
68438;SDS011;55421;51.600;5.718;2023-11-19T12:12:21;15.30;;;2.80;;
68438;SDS011;55421;51.600;5.718;2023-11-19T12:20:00;11.60;;;2.90;;
68438;SDS011;55421;51.600;5.718;2023-11-19T12:22:37;12.90;;;2.70;;
68438;SDS011;55421;51.600;5.718;2023-11-19T12:25:06;15.80;;;2.50;;
68438;SDS011;55421;51.600;5.718;2023-11-19T12:27:33;18.90;;;2.70;;
68438;SDS011;55421;51.600;5.718;2023-11-19T12:30:03;14.70;;;2.60;;
68438;SDS011;55421;51.600;5.718;2023-11-19T12:32:43;8.00;;;2.40;;
68438;SDS011;55421;51.600;5.718;2023-11-19T12:35:12;13.20;;;2.40;;
68438;SDS011;55421;51.600;5.718;2023-11-19T12:37:43;15.90;;;2.90;;
68438;SDS011;55421;51.600;5.718;2023-11-19T12:40:15;15.00;;;3.70;;
68438;SDS011;55421;51.600;5.718;2023-11-19T12:42:46;11.40;;;2.70;;
68438;SDS011;55421;51.600;5.718;2023-11-19T12:45:14;16.20;;;3.20;;
68438;SDS011;55421;51.600;5.718;2023-11-19T12:47:43;10.60;;;2.00;;
68438;SDS011;55421;51.600;5.718;2023-11-19T12:50:10;12.80;;;2.30;;
68438;SDS011;55421;51.600;5.718;2023-11-19T12:52:37;11.80;;;2.90;;
68438;SDS011;55421;51.600;5.718;2023-11-19T12:55:23;17.00;;;3.10;;
68438;SDS011;55421;51.600;5.718;2023-11-19T12:57:55;12.30;;;2.50;;
68438;SDS011;55421;51.600;5.718;2023-11-19T13:00:24;19.00;;;2.90;;
68438;SDS011;55421;51.600;5.718;2023-11-19T13:02:54;14.80;;;2.80;;
68438;SDS011;55421;51.600;5.718;2023-11-19T13:05:30;14.50;;;3.30;;
68438;SDS011;55421;51.600;5.718;2023-11-19T13:08:06;15.70;;;3.00;;
68438;SDS011;55421;51.600;5.718;2023-11-19T13:13:16;8.70;;;2.00;;
68438;SDS011;55421;51.600;5.718;2023-11-19T13:15:43;17.40;;;3.20;;
68438;SDS011;55421;51.600;5.718;2023-11-19T13:18:11;15.80;;;2.70;;
68438;SDS011;55421;51.600;5.718;2023-11-19T13:20:38;14.00;;;2.40;;
68438;SDS011;55421;51.600;5.718;2023-11-19T13:23:06;12.80;;;2.50;;
68438;SDS011;55421;51.600;5.718;2023-11-19T13:25:36;13.00;;;2.80;;
68438;SDS011;55421;51.600;5.718;2023-11-19T13:28:03;16.70;;;2.80;;
68438;SDS011;55421;51.600;5.718;2023-11-19T13:30:30;14.10;;;2.60;;
68438;SDS011;55421;51.600;5.718;2023-11-19T13:32:56;13.10;;;3.40;;
68438;SDS011;55421;51.600;5.718;2023-11-19T13:35:23;15.90;;;2.40;;
68438;SDS011;55421;51.600;5.718;2023-11-19T13:37:49;17.60;;;3.00;;
68438;SDS011;55421;51.600;5.718;2023-11-19T13:40:16;17.00;;;2.70;;
68438;SDS011;55421;51.600;5.718;2023-11-19T13:42:43;16.90;;;3.00;;
68438;SDS011;55421;51.600;5.718;2023-11-19T13:45:11;14.20;;;2.30;;
68438;SDS011;55421;51.600;5.718;2023-11-19T13:47:40;10.20;;;2.30;;
68438;SDS011;55421;51.600;5.718;2023-11-19T13:50:09;11.10;;;2.20;;
68438;SDS011;55421;51.600;5.718;2023-11-19T13:52:38;15.40;;;2.70;;
68438;SDS011;55421;51.600;5.718;2023-11-19T13:55:07;14.20;;;2.80;;
68438;SDS011;55421;51.600;5.718;2023-11-19T13:57:36;11.60;;;1.90;;
68438;SDS011;55421;51.600;5.718;2023-11-19T14:00:05;15.30;;;2.90;;
68438;SDS011;55421;51.600;5.718;2023-11-19T14:02:34;16.70;;;2.50;;
68438;SDS011;55421;51.600;5.718;2023-11-19T14:05:00;11.70;;;2.20;;
68438;SDS011;55421;51.600;5.718;2023-11-19T14:07:27;10.10;;;2.90;;
68438;SDS011;55421;51.600;5.718;2023-11-19T14:09:54;12.60;;;2.80;;
68438;SDS011;55421;51.600;5.718;2023-11-19T14:12:20;12.30;;;3.10;;
68438;SDS011;55421;51.600;5.718;2023-11-19T14:14:47;12.80;;;2.40;;
68438;SDS011;55421;51.600;5.718;2023-11-19T14:17:14;10.40;;;2.40;;
68438;SDS011;55421;51.600;5.718;2023-11-19T14:19:42;14.20;;;2.40;;
68438;SDS011;55421;51.600;5.718;2023-11-19T14:22:10;11.70;;;2.20;;
68438;SDS011;55421;51.600;5.718;2023-11-19T14:24:37;16.90;;;3.00;;
68438;SDS011;55421;51.600;5.718;2023-11-19T14:27:06;12.70;;;3.10;;
68438;SDS011;55421;51.600;5.718;2023-11-19T14:29:32;9.90;;;2.40;;
68438;SDS011;55421;51.600;5.718;2023-11-19T14:32:00;13.50;;;2.80;;
68438;SDS011;55421;51.600;5.718;2023-11-19T14:34:30;12.10;;;2.90;;
68438;SDS011;55421;51.600;5.718;2023-11-19T14:36:57;16.20;;;2.80;;
68438;SDS011;55421;51.600;5.718;2023-11-19T14:39:23;18.90;;;3.10;;
68438;SDS011;55421;51.600;5.718;2023-11-19T14:41:50;11.80;;;2.60;;
68438;SDS011;55421;51.600;5.718;2023-11-19T14:44:18;12.30;;;2.90;;
68438;SDS011;55421;51.600;5.718;2023-11-19T14:46:46;13.00;;;2.80;;
68438;SDS011;55421;51.600;5.718;2023-11-19T14:49:13;16.10;;;2.80;;
68438;SDS011;55421;51.600;5.718;2023-11-19T14:51:40;11.60;;;2.50;;
68438;SDS011;55421;51.600;5.718;2023-11-19T14:54:06;9.20;;;2.50;;
68438;SDS011;55421;51.600;5.718;2023-11-19T14:56:33;12.20;;;3.00;;
68438;SDS011;55421;51.600;5.718;2023-11-19T14:58:59;15.70;;;2.80;;
68438;SDS011;55421;51.600;5.718;2023-11-19T15:01:26;12.00;;;2.70;;
68438;SDS011;55421;51.600;5.718;2023-11-19T15:03:54;11.50;;;2.30;;
68438;SDS011;55421;51.600;5.718;2023-11-19T15:06:25;20.70;;;3.20;;
68438;SDS011;55421;51.600;5.718;2023-11-19T15:08:56;11.00;;;2.50;;
68438;SDS011;55421;51.600;5.718;2023-11-19T15:11:23;15.70;;;2.30;;